Terminal Aerodrome Forecast
Issued by NWS

Home | Current Version | Previous Version | Text Only | Print | Product List | Glossary On
Versions: 1 2 3 4 5 6 7 8 9 10 11 12
000
FTUS43 KEAX 011100
TAFMKC
TAF
KMKC 011132Z 0112/0212 34010KT 3SM -RASN OVC007
     FM011700 33018G30KT 5SM -SN OVC015
     FM020300 32010KT P6SM OVC025=

USA.gov is the U.S. government's official web portal to all federal, state and local government web resources and services.